createdAt,value
2022-12-14T00:02:31.240Z,66.17
2022-12-14T00:05:34.050Z,66.51
2022-12-14T00:08:41.513Z,67.05
2022-12-14T00:11:45.996Z,68.05
2022-12-14T00:14:48.690Z,67.00
2022-12-14T00:17:51.467Z,66.76
2022-12-14T00:20:54.151Z,66.33
2022-12-14T00:23:59.216Z,67.12
2022-12-14T00:27:03.224Z,67.31
2022-12-14T00:30:07.059Z,68.79
2022-12-14T00:33:10.352Z,67.95
2022-12-14T00:36:14.652Z,68.06
2022-12-14T00:39:17.341Z,68.40
2022-12-14T00:42:21.355Z,68.13
2022-12-14T00:45:23.947Z,69.45
2022-12-14T00:48:28.048Z,68.38
2022-12-14T00:51:31.325Z,68.89
2022-12-14T00:54:33.947Z,67.98
2022-12-14T00:57:37.988Z,68.62
2022-12-14T01:00:41.106Z,67.80
2022-12-14T01:03:43.863Z,68.99
2022-12-14T01:06:47.977Z,69.49
2022-12-14T01:09:50.587Z,69.16
2022-12-14T01:12:54.592Z,69.55
2022-12-14T01:15:57.266Z,69.19
2022-12-14T01:19:01.134Z,69.96
2022-12-14T01:22:03.787Z,69.01
2022-12-14T01:25:07.036Z,69.09
2022-12-14T01:28:11.304Z,70.07
2022-12-14T01:31:15.841Z,70.17
2022-12-14T01:34:18.694Z,69.29
2022-12-14T01:37:22.107Z,68.23
2022-12-14T01:40:27.622Z,69.28
2022-12-14T01:43:48.832Z,68.54
2022-12-14T01:46:57.812Z,68.03
2022-12-14T01:50:06.848Z,67.30
2022-12-14T01:53:13.408Z,67.81
2022-12-14T01:56:17.517Z,67.61
2022-12-14T01:59:27.629Z,67.39
2022-12-14T02:02:31.314Z,68.44
2022-12-14T02:05:37.860Z,67.90
2022-12-14T02:08:45.221Z,69.30
2022-12-14T02:11:53.530Z,70.68
2022-12-14T02:14:58.679Z,70.37
2022-12-14T02:18:04.748Z,70.09
2022-12-14T02:21:22.467Z,69.68
2022-12-14T02:24:45.569Z,69.97
2022-12-14T02:28:15.117Z,70.86
2022-12-14T02:31:30.098Z,70.76
2022-12-14T02:34:42.232Z,71.15
2022-12-14T02:37:53.684Z,71.06
2022-12-14T02:41:07.686Z,70.91
2022-12-14T02:44:19.393Z,71.93
2022-12-14T02:47:29.328Z,70.53
2022-12-14T02:50:41.156Z,71.43
2022-12-14T02:53:48.776Z,70.74
2022-12-14T02:56:57.258Z,71.31
2022-12-14T03:00:04.203Z,70.94
2022-12-14T03:03:09.508Z,71.49
2022-12-14T03:06:25.981Z,70.74
2022-12-14T03:09:31.335Z,71.92
2022-12-14T03:12:34.680Z,71.40
2022-12-14T03:15:41.881Z,71.26
2022-12-14T03:18:52.348Z,71.16
2022-12-14T03:21:59.175Z,70.75
2022-12-14T03:25:08.676Z,71.65
2022-12-14T03:28:16.760Z,71.07
2022-12-14T03:31:23.895Z,71.07
2022-12-14T03:34:32.947Z,70.88
2022-12-14T03:37:41.564Z,70.74
2022-12-14T03:40:51.881Z,71.24
2022-12-14T03:44:06.160Z,70.98
2022-12-14T03:47:19.563Z,71.19
2022-12-14T03:50:26.520Z,72.24
2022-12-14T03:53:38.491Z,71.22
2022-12-14T03:56:52.798Z,72.41
2022-12-14T04:00:02.972Z,72.71
2022-12-14T04:03:13.046Z,72.65
2022-12-14T04:06:24.332Z,73.08
2022-12-14T04:09:34.164Z,73.20
2022-12-14T04:12:58.742Z,73.83
2022-12-14T04:16:27.493Z,75.01
2022-12-14T04:19:36.601Z,74.68
2022-12-14T04:22:47.388Z,74.95
2022-12-14T04:26:05.148Z,74.38
2022-12-14T04:29:29.483Z,74.80
2022-12-14T04:32:42.775Z,74.35
2022-12-14T04:35:46.455Z,75.96
2022-12-14T04:38:54.748Z,75.09
2022-12-14T04:42:01.863Z,75.79
2022-12-14T04:45:09.275Z,75.87
2022-12-14T04:48:21.649Z,76.57
2022-12-14T04:51:30.204Z,76.20
2022-12-14T04:54:41.805Z,75.41
2022-12-14T04:57:49.650Z,75.36
2022-12-14T05:01:12.571Z,76.18
2022-12-14T05:04:25.756Z,75.53
2022-12-14T05:07:43.471Z,76.00
2022-12-14T05:11:23.188Z,75.59
2022-12-14T05:14:34.701Z,75.58
2022-12-14T05:17:38.728Z,75.32
2022-12-14T05:20:41.547Z,75.68
2022-12-14T05:23:44.306Z,75.10
2022-12-14T05:26:48.619Z,75.96
2022-12-14T05:29:51.744Z,76.44
2022-12-14T05:32:54.757Z,76.58
2022-12-14T05:35:57.924Z,76.71
2022-12-14T05:39:01.003Z,77.58
2022-12-14T05:42:05.606Z,77.40
2022-12-14T05:45:11.092Z,77.71
2022-12-14T05:48:13.973Z,77.83
2022-12-14T05:51:16.870Z,77.11
2022-12-14T05:54:19.624Z,76.93
2022-12-14T05:57:23.825Z,78.21
2022-12-14T06:00:27.251Z,78.19
2022-12-14T06:03:30.396Z,78.77
2022-12-14T06:06:34.607Z,79.23
2022-12-14T06:09:37.410Z,80.75
2022-12-14T06:12:41.856Z,80.43
2022-12-14T06:15:44.803Z,80.30
2022-12-14T06:18:49.824Z,81.14
2022-12-14T06:21:55.809Z,81.07
2022-12-14T06:24:58.518Z,81.27
2022-12-14T06:28:03.220Z,82.80
2022-12-14T06:31:07.565Z,82.35
2022-12-14T06:34:11.460Z,82.15
2022-12-14T06:37:14.864Z,83.35
2022-12-14T06:40:17.695Z,83.61
2022-12-14T06:43:21.802Z,84.28
2022-12-14T06:46:25.418Z,84.90
2022-12-14T06:49:28.741Z,84.87
2022-12-14T06:52:31.507Z,84.21
2022-12-14T06:55:34.285Z,86.44
2022-12-14T06:58:38.809Z,85.97
2022-12-14T07:01:42.479Z,86.93
2022-12-14T07:04:45.599Z,86.75
2022-12-14T07:07:48.742Z,87.61
2022-12-14T07:10:52.130Z,89.16
2022-12-14T07:13:57.005Z,88.97
2022-12-14T07:16:59.672Z,89.73
2022-12-14T07:20:02.425Z,89.92
2022-12-14T07:23:05.188Z,90.73
2022-12-14T07:26:09.854Z,90.81
2022-12-14T07:29:15.114Z,90.85
2022-12-14T07:32:17.846Z,91.02
2022-12-14T07:35:20.762Z,91.39
2022-12-14T07:38:23.735Z,90.63
2022-12-14T07:41:30.827Z,91.65
2022-12-14T07:44:35.112Z,91.24
2022-12-14T07:47:38.150Z,91.00
2022-12-14T07:50:40.984Z,92.40
2022-12-14T07:53:44.340Z,92.53
2022-12-14T07:56:47.237Z,92.70
2022-12-14T07:59:57.111Z,91.97
2022-12-14T08:03:00.396Z,91.86
2022-12-14T08:06:05.853Z,91.76
2022-12-14T08:09:11.449Z,91.59
2022-12-14T08:12:14.332Z,90.83
2022-12-14T08:15:18.538Z,91.39
2022-12-14T08:18:21.558Z,91.43
2022-12-14T08:21:24.959Z,90.63
2022-12-14T08:24:27.644Z,91.11
2022-12-14T08:27:31.380Z,89.99
2022-12-14T08:30:41.370Z,89.95
2022-12-14T08:33:45.177Z,89.60
2022-12-14T08:36:47.965Z,90.19
2022-12-14T08:39:50.876Z,90.02
2022-12-14T08:42:53.669Z,89.41
2022-12-14T08:45:58.264Z,88.93
2022-12-14T08:49:01.581Z,89.59
2022-12-14T08:52:04.359Z,90.55
2022-12-14T08:55:08.106Z,90.18
2022-12-14T08:58:11.454Z,90.10
2022-12-14T09:01:17.694Z,90.89
2022-12-14T09:04:20.632Z,90.92
2022-12-14T09:07:23.399Z,91.21
2022-12-14T09:10:26.144Z,90.87
2022-12-14T09:13:29.960Z,90.42
2022-12-14T09:16:34.705Z,90.58
2022-12-14T09:19:37.464Z,91.19
2022-12-14T09:22:40.341Z,91.61
2022-12-14T09:25:43.087Z,93.12
2022-12-14T09:28:47.667Z,92.70
2022-12-14T09:31:52.076Z,92.75
2022-12-14T09:34:54.896Z,93.25
2022-12-14T09:37:58.043Z,93.54
2022-12-14T09:41:06.928Z,94.41
2022-12-14T09:44:18.662Z,94.76
2022-12-14T09:47:29.144Z,94.16
2022-12-14T09:50:32.445Z,94.01
2022-12-14T09:53:37.348Z,94.19
2022-12-14T09:56:41.389Z,94.35
2022-12-14T09:59:44.361Z,94.06
2022-12-14T10:03:10.461Z,95.03
2022-12-14T10:06:28.893Z,95.22
2022-12-14T10:09:40.508Z,95.18
2022-12-14T10:12:53.264Z,95.14
2022-12-14T10:16:09.143Z,94.35
2022-12-14T10:19:28.842Z,94.51
2022-12-14T10:22:37.038Z,93.84
2022-12-14T10:25:40.980Z,94.13
2022-12-14T10:28:50.406Z,93.89
2022-12-14T10:32:00.634Z,93.97
2022-12-14T10:35:14.782Z,94.85
2022-12-14T10:38:24.137Z,94.58
2022-12-14T10:41:39.506Z,94.78
2022-12-14T10:45:09.680Z,95.73
2022-12-14T10:48:40.909Z,95.42
2022-12-14T10:51:50.027Z,94.59
2022-12-14T10:54:56.215Z,95.28
2022-12-14T10:57:59.087Z,95.28
2022-12-14T11:01:01.895Z,95.47
2022-12-14T11:04:05.660Z,95.07
2022-12-14T11:07:12.322Z,94.26
2022-12-14T11:10:17.988Z,94.22
2022-12-14T11:13:22.286Z,93.71
2022-12-14T11:16:35.372Z,93.55
2022-12-14T11:19:39.197Z,92.78
2022-12-14T11:22:47.105Z,92.18
2022-12-14T11:25:51.829Z,92.26
2022-12-14T11:28:55.973Z,92.50
2022-12-14T11:31:59.026Z,92.77
2022-12-14T11:35:01.783Z,92.28
2022-12-14T11:38:06.744Z,91.94
2022-12-14T11:41:11.993Z,91.67
2022-12-14T11:44:27.185Z,91.59
2022-12-14T11:47:29.933Z,91.78
2022-12-14T11:50:32.758Z,92.18
2022-12-14T11:53:37.197Z,92.13
2022-12-14T11:56:40.162Z,91.64
2022-12-14T11:59:48.540Z,91.08
2022-12-14T12:03:00.245Z,90.71
2022-12-14T12:06:07.291Z,90.77
2022-12-14T12:09:28.452Z,90.34
2022-12-14T12:12:34.671Z,89.33
2022-12-14T12:15:40.995Z,88.26
2022-12-14T12:18:47.851Z,88.21
2022-12-14T12:21:50.761Z,88.17
2022-12-14T12:28:27.111Z,87.87
2022-12-14T12:31:33.735Z,88.21
2022-12-14T12:34:43.866Z,87.92
2022-12-14T12:37:51.189Z,87.61
2022-12-14T12:41:02.997Z,87.17
2022-12-14T12:44:22.998Z,86.92
2022-12-14T12:47:38.449Z,88.46
2022-12-14T12:50:52.246Z,87.96
2022-12-14T12:54:00.149Z,87.77
2022-12-14T12:57:06.890Z,88.39
2022-12-14T13:00:17.159Z,88.39
2022-12-14T13:03:23.925Z,89.24
2022-12-14T13:06:32.058Z,89.34
2022-12-14T13:09:42.958Z,89.48
2022-12-14T13:12:50.301Z,89.80
2022-12-14T13:15:56.426Z,90.28
2022-12-14T13:19:48.635Z,90.64
2022-12-14T13:22:29.858Z,91.30
2022-12-14T13:25:52.070Z,91.55
2022-12-14T13:29:01.296Z,91.67
2022-12-14T13:32:12.084Z,91.72
2022-12-14T13:35:37.952Z,92.04
2022-12-14T13:38:59.943Z,91.83
2022-12-14T13:42:08.620Z,91.75
2022-12-14T13:45:19.611Z,91.96
2022-12-14T13:48:25.938Z,91.22
2022-12-14T13:51:30.930Z,90.78
2022-12-14T13:54:39.352Z,91.20
2022-12-14T13:57:42.821Z,91.59
2022-12-14T14:01:01.976Z,91.88
2022-12-14T14:04:22.341Z,91.78
2022-12-14T14:07:49.823Z,91.37
2022-12-14T14:11:02.486Z,90.95
2022-12-14T14:14:36.072Z,91.62
2022-12-14T14:17:42.681Z,91.16
2022-12-14T14:20:47.645Z,91.68
2022-12-14T14:23:56.146Z,92.57
2022-12-14T14:27:02.170Z,92.00
2022-12-14T14:30:24.237Z,92.43
2022-12-14T14:33:50.339Z,92.34
2022-12-14T14:36:53.417Z,92.17
2022-12-14T14:40:58.333Z,92.62
2022-12-14T14:43:59.044Z,92.25
2022-12-14T14:47:07.488Z,92.20
2022-12-14T14:50:23.017Z,91.63
2022-12-14T14:53:32.739Z,92.20
2022-12-14T14:56:37.668Z,92.22
2022-12-14T14:59:51.025Z,91.18
2022-12-14T15:02:56.123Z,91.16
2022-12-14T15:06:00.695Z,91.66
2022-12-14T15:09:07.166Z,91.18
2022-12-14T15:12:25.850Z,91.86
2022-12-14T15:15:36.966Z,91.29
2022-12-14T15:18:39.767Z,90.44
2022-12-14T15:21:44.087Z,90.58
2022-12-14T15:24:49.205Z,90.81
2022-12-14T15:27:52.684Z,91.38
2022-12-14T15:30:57.396Z,90.51
2022-12-14T15:34:01.653Z,91.42
2022-12-14T15:37:06.233Z,92.22
2022-12-14T15:40:15.064Z,91.81
2022-12-14T15:43:20.864Z,92.46
2022-12-14T15:46:27.206Z,90.92
2022-12-14T15:49:30.060Z,90.83
2022-12-14T15:52:34.333Z,90.63
2022-12-14T15:55:41.153Z,91.17
2022-12-14T15:58:45.163Z,92.00
2022-12-14T16:01:55.047Z,92.01
2022-12-14T16:05:03.746Z,91.81
2022-12-14T16:08:10.319Z,91.34
2022-12-14T16:11:19.569Z,92.05
2022-12-14T16:14:25.766Z,91.59
2022-12-14T16:17:32.256Z,91.61
2022-12-14T16:20:37.780Z,91.91
2022-12-14T16:23:45.799Z,91.29
2022-12-14T16:26:56.617Z,90.16
2022-12-14T16:30:17.911Z,90.97
2022-12-14T16:33:22.298Z,90.43
2022-12-14T16:36:26.641Z,90.93
2022-12-14T16:39:35.636Z,90.87
2022-12-14T16:42:38.724Z,90.45
2022-12-14T16:46:09.492Z,90.04
2022-12-14T16:49:21.272Z,89.55
2022-12-14T16:52:27.309Z,89.92
2022-12-14T16:55:31.404Z,89.33
2022-12-14T16:58:36.154Z,89.92
2022-12-14T17:01:42.157Z,90.83
2022-12-14T17:04:45.435Z,89.66
2022-12-14T17:07:48.271Z,89.56
2022-12-14T17:10:55.978Z,89.45
2022-12-14T17:13:58.824Z,90.46
2022-12-14T17:17:02.573Z,89.76
2022-12-14T17:20:13.686Z,90.03
2022-12-14T17:23:18.858Z,89.39
2022-12-14T17:26:26.624Z,89.95
2022-12-14T17:29:31.054Z,90.23
2022-12-14T17:32:34.185Z,89.73
2022-12-14T17:35:37.470Z,90.26
2022-12-14T17:38:40.632Z,89.73
2022-12-14T17:41:46.793Z,90.17
2022-12-14T17:44:53.234Z,90.35
2022-12-14T17:47:56.887Z,89.39
2022-12-14T17:51:00.241Z,89.76
2022-12-14T17:54:03.404Z,90.51
2022-12-14T17:57:14.698Z,89.93
2022-12-14T18:00:36.561Z,90.07
2022-12-14T18:03:39.384Z,90.65
2022-12-14T18:06:42.356Z,89.63
2022-12-14T18:09:45.145Z,89.75
2022-12-14T18:12:52.265Z,89.43
2022-12-14T18:15:55.482Z,90.54
2022-12-14T18:18:58.390Z,89.80
2022-12-14T18:22:01.154Z,89.96
2022-12-14T18:25:04.369Z,90.19
2022-12-14T18:28:10.249Z,89.65
2022-12-14T18:31:20.428Z,89.95
2022-12-14T18:34:23.411Z,89.36
2022-12-14T18:37:31.219Z,90.33
2022-12-14T18:40:35.657Z,90.86
2022-12-14T18:43:43.632Z,90.34
2022-12-14T18:46:49.433Z,90.88
2022-12-14T18:49:52.493Z,91.11
2022-12-14T18:52:56.343Z,90.73
2022-12-14T18:55:59.202Z,90.28
2022-12-14T18:59:03.655Z,89.90
2022-12-14T19:02:06.534Z,89.55
2022-12-14T19:05:10.127Z,90.07
2022-12-14T19:08:13.188Z,89.53
2022-12-14T19:11:28.676Z,89.66
2022-12-14T19:14:32.891Z,89.08
2022-12-14T19:17:35.652Z,89.56
2022-12-14T19:20:38.439Z,89.47
2022-12-14T19:23:41.209Z,89.38
2022-12-14T19:26:44.161Z,89.78
2022-12-14T19:29:53.741Z,90.02
2022-12-14T19:32:59.227Z,89.45
2022-12-14T19:36:05.731Z,90.35
2022-12-14T19:39:08.712Z,90.04
2022-12-14T19:42:11.405Z,90.38
2022-12-14T19:45:16.826Z,90.47
2022-12-14T19:48:19.962Z,89.91
2022-12-14T19:51:22.839Z,90.62
2022-12-14T19:54:25.706Z,89.99
2022-12-14T19:57:28.509Z,90.19
2022-12-14T20:00:32.857Z,90.13
2022-12-14T20:03:36.780Z,88.71
2022-12-14T20:06:40.185Z,88.79
2022-12-14T20:09:42.877Z,89.43
2022-12-14T20:12:45.596Z,89.02
2022-12-14T20:15:50.829Z,89.25
2022-12-14T20:18:53.973Z,89.46
2022-12-14T20:21:56.810Z,90.47
2022-12-14T20:24:59.659Z,90.11
2022-12-14T20:28:02.587Z,90.69
2022-12-14T20:31:09.101Z,90.23
2022-12-14T20:34:11.855Z,89.88
2022-12-14T20:37:14.628Z,90.02
2022-12-14T20:40:17.445Z,89.28
2022-12-14T20:43:20.616Z,89.96
2022-12-14T20:46:33.344Z,89.65
2022-12-14T20:49:38.769Z,89.40
2022-12-14T20:52:41.580Z,90.25
2022-12-14T20:55:45.369Z,91.08
2022-12-14T20:58:49.116Z,90.48
2022-12-14T21:01:56.583Z,90.49
2022-12-14T21:04:59.875Z,90.12
2022-12-14T21:08:03.349Z,90.41
2022-12-14T21:11:20.367Z,89.97
2022-12-14T21:14:25.699Z,89.71
2022-12-14T21:17:31.306Z,89.30
2022-12-14T21:20:34.121Z,89.96
2022-12-14T21:23:36.867Z,90.13
2022-12-14T21:26:40.526Z,89.79
2022-12-14T21:29:43.448Z,90.05
2022-12-14T21:32:50.191Z,90.15
2022-12-14T21:35:52.869Z,90.24
2022-12-14T21:38:56.228Z,89.90
2022-12-14T21:42:12.933Z,90.08
2022-12-14T21:45:16.065Z,90.14
2022-12-14T21:48:20.095Z,89.70
2022-12-14T21:51:22.860Z,89.33
2022-12-14T21:54:26.771Z,90.17
2022-12-14T21:57:50.319Z,89.98
2022-12-14T22:00:53.490Z,90.46
2022-12-14T22:03:57.681Z,90.97
2022-12-14T22:07:01.572Z,90.43
2022-12-14T22:10:04.844Z,90.13
2022-12-14T22:13:07.652Z,90.84
2022-12-14T22:16:11.552Z,91.16
2022-12-14T22:19:18.788Z,90.10
2022-12-14T22:22:21.610Z,90.19
2022-12-14T22:25:24.762Z,89.59
2022-12-14T22:28:27.647Z,89.89
2022-12-14T22:31:30.782Z,90.38
2022-12-14T22:34:35.094Z,90.46
2022-12-14T22:37:37.832Z,90.80
2022-12-14T22:40:40.533Z,90.73
2022-12-14T22:43:44.750Z,90.75
2022-12-14T22:46:47.997Z,90.65
2022-12-14T22:49:52.269Z,89.97
2022-12-14T22:52:55.013Z,89.11
2022-12-14T22:56:10.357Z,89.88
2022-12-14T22:59:16.691Z,90.44
2022-12-14T23:02:20.105Z,90.88
2022-12-14T23:05:24.350Z,90.15
2022-12-14T23:08:27.150Z,90.01
2022-12-14T23:11:47.326Z,90.11
2022-12-14T23:15:08.163Z,90.06
2022-12-14T23:18:28.550Z,89.85
2022-12-14T23:21:50.340Z,90.39
2022-12-14T23:25:10.583Z,90.40
2022-12-14T23:28:30.664Z,90.52
2022-12-14T23:31:51.204Z,90.46
2022-12-14T23:35:11.161Z,90.76
2022-12-14T23:38:32.672Z,90.00
2022-12-14T23:41:52.926Z,91.18
2022-12-14T23:45:13.408Z,90.33
2022-12-14T23:48:33.649Z,90.21
2022-12-14T23:51:54.393Z,89.85
2022-12-14T23:55:16.251Z,90.76
2022-12-14T23:58:36.510Z,90.52
